createdAt,value
2018-01-12T00:01:40.954Z,93.80
2018-01-12T00:04:08.378Z,93.80
2018-01-12T00:06:35.808Z,94.20
2018-01-12T00:09:03.248Z,94.00
2018-01-12T00:11:31.452Z,93.70
2018-01-12T00:13:58.889Z,93.70
2018-01-12T00:16:27.098Z,93.50
2018-01-12T00:18:54.535Z,93.50
2018-01-12T00:21:21.970Z,93.50
2018-01-12T00:23:50.176Z,93.60
2018-01-12T00:26:17.606Z,94.00
2018-01-12T00:28:45.804Z,93.50
2018-01-12T00:31:13.261Z,93.80
2018-01-12T00:33:40.703Z,93.50
2018-01-12T00:36:08.896Z,93.30
2018-01-12T00:38:36.381Z,93.30
2018-01-12T00:41:04.530Z,93.20
2018-01-12T00:43:31.971Z,93.20
2018-01-12T00:46:00.173Z,93.40
2018-01-12T00:48:27.609Z,93.40
2018-01-12T00:50:55.039Z,93.50
2018-01-12T00:53:22.481Z,93.50
2018-01-12T00:55:49.924Z,94.00
2018-01-12T00:58:17.364Z,93.50
2018-01-12T01:00:45.208Z,93.60
2018-01-12T01:03:12.896Z,93.60
2018-01-12T01:05:40.732Z,93.50
2018-01-12T01:08:08.175Z,93.60
2018-01-12T01:10:36.370Z,93.30
2018-01-12T01:13:03.808Z,93.20
2018-01-12T01:15:32.008Z,93.30
2018-01-12T01:17:59.445Z,93.30
2018-01-12T01:20:27.651Z,93.60
2018-01-12T01:22:55.110Z,93.60
2018-01-12T01:25:22.536Z,93.40
2018-01-12T01:27:50.748Z,93.50
2018-01-12T01:30:18.189Z,93.40
2018-01-12T01:32:45.658Z,93.60
2018-01-12T01:35:13.116Z,93.70
2018-01-12T01:37:40.566Z,93.60
2018-01-12T01:40:07.996Z,93.40
2018-01-12T01:42:36.189Z,93.50
2018-01-12T01:45:03.633Z,93.50
2018-01-12T01:47:31.835Z,93.60
2018-01-12T01:49:59.277Z,93.60
2018-01-12T01:52:26.781Z,93.40
2018-01-12T01:54:54.226Z,93.30
2018-01-12T01:57:21.666Z,93.40
2018-01-12T01:59:49.110Z,93.30
2018-01-12T02:02:16.539Z,93.30
2018-01-12T02:04:43.973Z,93.50
2018-01-12T02:07:11.421Z,93.40
2018-01-12T02:09:38.860Z,93.30
2018-01-12T02:12:06.293Z,93.90
2018-01-12T02:14:33.757Z,94.00
2018-01-12T02:17:01.185Z,94.10
2018-01-12T02:19:29.409Z,94.90
2018-01-12T02:21:56.837Z,94.90
2018-01-12T02:24:25.137Z,95.10
2018-01-12T02:26:52.570Z,95.30
2018-01-12T02:29:19.997Z,95.20
2018-01-12T02:31:47.425Z,95.20
2018-01-12T02:34:14.871Z,95.50
2018-01-12T02:36:42.316Z,95.20
2018-01-12T02:39:09.741Z,95.20
2018-01-12T02:41:37.935Z,95.70
2018-01-12T02:44:06.231Z,95.70
2018-01-12T02:46:33.645Z,95.70
2018-01-12T02:49:01.887Z,95.70
2018-01-12T02:51:29.318Z,95.70
2018-01-12T02:53:56.757Z,95.50
2018-01-12T02:56:24.185Z,95.80
2018-01-12T02:58:51.635Z,95.80
2018-01-12T03:01:19.085Z,96.40
2018-01-12T03:03:46.548Z,97.00
2018-01-12T03:06:13.962Z,96.40
2018-01-12T03:08:41.452Z,96.10
2018-01-12T03:11:08.883Z,96.20
2018-01-12T03:13:36.320Z,95.60
2018-01-12T03:16:03.757Z,94.80
2018-01-12T03:18:31.968Z,94.60
2018-01-12T03:20:59.405Z,94.60
2018-01-12T03:23:26.837Z,94.60
2018-01-12T03:25:54.282Z,94.90
2018-01-12T03:28:21.713Z,94.50
2018-01-12T03:30:49.155Z,94.50
2018-01-12T03:33:16.591Z,94.60
2018-01-12T03:35:44.031Z,94.50
2018-01-12T03:38:12.334Z,94.20
2018-01-12T03:40:39.765Z,94.20
2018-01-12T03:43:07.961Z,93.90
2018-01-12T03:45:35.420Z,93.80
2018-01-12T03:48:02.999Z,93.80
2018-01-12T03:50:30.430Z,93.60
2018-01-12T03:52:57.866Z,94.10
2018-01-12T03:55:25.297Z,94.40
2018-01-12T03:57:52.773Z,94.30
2018-01-12T04:00:20.213Z,94.40
2018-01-12T04:02:47.648Z,93.80
2018-01-12T04:05:15.089Z,94.30
2018-01-12T04:07:42.517Z,94.00
2018-01-12T04:10:11.637Z,94.20
2018-01-12T04:12:39.073Z,94.20
2018-01-12T04:15:07.309Z,93.90
2018-01-12T04:17:34.752Z,93.90
2018-01-12T04:20:02.189Z,93.80
2018-01-12T04:22:29.612Z,93.80
2018-01-12T04:24:57.827Z,93.90
2018-01-12T04:27:25.257Z,93.90
2018-01-12T04:29:53.466Z,93.90
2018-01-12T04:32:20.897Z,93.80
2018-01-12T04:34:48.352Z,93.80
2018-01-12T04:37:15.783Z,93.70
2018-01-12T04:39:43.204Z,93.60
2018-01-12T04:42:11.588Z,93.70
2018-01-12T04:44:39.007Z,93.60
2018-01-12T04:47:07.203Z,93.80
2018-01-12T04:49:34.642Z,93.80
2018-01-12T04:52:02.838Z,93.70
2018-01-12T04:54:30.269Z,93.70
2018-01-12T04:56:57.721Z,93.80
2018-01-12T04:59:25.932Z,93.60
2018-01-12T05:04:28.007Z,93.70
2018-01-12T05:06:55.463Z,93.60
2018-01-12T05:09:22.889Z,94.00
2018-01-12T05:11:51.106Z,93.70
2018-01-12T05:14:18.561Z,93.70
2018-01-12T05:16:45.999Z,93.90
2018-01-12T05:19:14.208Z,94.00
2018-01-12T05:21:41.658Z,94.00
2018-01-12T05:24:09.102Z,94.00
2018-01-12T05:26:36.532Z,93.70
2018-01-12T05:29:03.969Z,93.80
2018-01-12T05:31:31.401Z,93.40
2018-01-12T05:34:00.587Z,93.70
2018-01-12T05:36:28.032Z,93.70
2018-01-12T05:38:55.460Z,93.60
2018-01-12T05:41:22.908Z,93.40
2018-01-12T05:43:51.902Z,93.40
2018-01-12T05:46:20.130Z,93.30
2018-01-12T05:48:47.540Z,93.30
2018-01-12T05:51:15.741Z,93.50
2018-01-12T05:53:43.172Z,93.50
2018-01-12T05:56:11.532Z,93.30
2018-01-12T05:58:38.957Z,93.20
2018-01-12T06:01:18.272Z,93.20
2018-01-12T06:03:57.625Z,93.30
2018-01-12T06:06:25.094Z,93.40
2018-01-12T06:08:52.523Z,93.40
2018-01-12T06:11:19.970Z,93.50
2018-01-12T06:13:47.417Z,93.50
2018-01-12T06:16:14.866Z,93.50
2018-01-12T06:18:43.057Z,93.40
2018-01-12T06:21:10.489Z,93.30
2018-01-12T06:23:38.681Z,93.40
2018-01-12T06:26:06.126Z,93.40
2018-01-12T06:28:33.577Z,93.20
2018-01-12T06:31:01.776Z,93.40
2018-01-12T06:33:29.220Z,93.30
2018-01-12T06:35:56.692Z,93.30
2018-01-12T06:38:24.169Z,93.00
2018-01-12T06:40:51.584Z,93.20
2018-01-12T06:43:19.781Z,93.20
2018-01-12T06:45:47.222Z,93.20
2018-01-12T06:48:15.412Z,94.10
2018-01-12T06:50:42.845Z,94.10
2018-01-12T06:53:11.973Z,93.80
2018-01-12T06:55:39.410Z,93.80
2018-01-12T06:58:07.605Z,93.30
2018-01-12T07:00:35.037Z,93.30
2018-01-12T07:03:03.259Z,93.10
2018-01-12T07:05:30.697Z,93.00
2018-01-12T07:07:58.141Z,93.10
2018-01-12T07:10:25.564Z,93.20
2018-01-12T07:12:53.004Z,93.20
2018-01-12T07:15:20.437Z,93.10
2018-01-12T07:17:47.870Z,93.10
2018-01-12T07:23:25.441Z,93.30
2018-01-12T07:25:52.877Z,93.20
2018-01-12T07:28:20.321Z,93.80
2018-01-12T07:30:47.752Z,93.40
2018-01-12T07:33:15.978Z,93.60
2018-01-12T07:35:44.009Z,93.60
2018-01-12T07:38:11.823Z,93.10
2018-01-12T07:40:39.258Z,93.50
2018-01-12T07:43:06.697Z,93.60
2018-01-12T07:45:34.133Z,93.80
2018-01-12T07:48:02.337Z,93.50
2018-01-12T07:50:29.768Z,93.50
2018-01-12T07:53:03.657Z,93.60
2018-01-12T07:55:31.080Z,93.60
2018-01-12T07:57:58.529Z,94.10
2018-01-12T08:00:31.540Z,93.40
2018-01-12T08:03:03.866Z,93.80
2018-01-12T08:05:32.061Z,94.30
2018-01-12T08:08:05.459Z,94.30
2018-01-12T08:10:32.890Z,94.70
2018-01-12T08:13:00.329Z,95.30
2018-01-12T08:15:28.520Z,95.50
2018-01-12T08:17:55.954Z,95.50
2018-01-12T08:20:24.149Z,94.20
2018-01-12T08:22:51.648Z,94.20
2018-01-12T08:25:19.097Z,93.60
2018-01-12T08:27:46.546Z,94.50
2018-01-12T08:30:13.965Z,95.00
2018-01-12T08:32:42.174Z,93.60
2018-01-12T08:35:09.609Z,93.60
2018-01-12T08:37:37.076Z,93.50
2018-01-12T08:40:05.260Z,93.20
2018-01-12T08:42:32.703Z,93.20
2018-01-12T08:45:00.131Z,93.20
2018-01-12T08:47:27.571Z,93.30
2018-01-12T08:49:55.038Z,92.90
2018-01-12T08:52:22.477Z,93.20
2018-01-12T08:54:49.916Z,93.00
2018-01-12T08:57:17.372Z,93.20
2018-01-12T08:59:44.809Z,93.30
2018-01-12T09:02:13.008Z,93.10
2018-01-12T09:04:40.444Z,93.10
2018-01-12T09:07:07.876Z,93.30
2018-01-12T09:09:36.087Z,93.00
2018-01-12T09:12:03.510Z,93.00
2018-01-12T09:14:43.665Z,92.90
2018-01-12T09:17:11.836Z,92.90
2018-01-12T09:19:48.019Z,92.80
2018-01-12T09:22:27.336Z,92.70
2018-01-12T09:24:55.569Z,92.80
2018-01-12T09:27:23.012Z,92.80
2018-01-12T09:29:50.439Z,93.10
2018-01-12T09:32:17.876Z,93.10
2018-01-12T09:35:05.828Z,93.30
2018-01-12T09:37:40.663Z,92.90
2018-01-12T09:40:26.220Z,93.00
2018-01-12T09:42:53.657Z,93.00
2018-01-12T09:45:21.088Z,93.20
2018-01-12T09:48:00.541Z,93.10
2018-01-12T09:50:27.973Z,93.10
2018-01-12T09:52:55.416Z,92.90
2018-01-12T09:55:22.839Z,93.00
2018-01-12T09:57:50.449Z,93.00
2018-01-12T10:00:26.587Z,93.00
2018-01-12T10:02:54.825Z,92.90
2018-01-12T10:05:22.254Z,92.80
2018-01-12T10:07:51.086Z,93.10
2018-01-12T10:10:18.516Z,93.00
2018-01-12T10:12:45.943Z,93.00
2018-01-12T10:15:13.377Z,92.70
2018-01-12T10:17:41.622Z,93.00
2018-01-12T10:20:14.827Z,93.00
2018-01-12T10:22:42.261Z,93.00
2018-01-12T10:25:10.555Z,93.00
2018-01-12T10:27:37.992Z,92.90
2018-01-12T10:30:17.340Z,92.50
2018-01-12T10:32:44.767Z,92.90
2018-01-12T10:35:18.128Z,92.90
2018-01-12T10:37:46.336Z,92.80
2018-01-12T10:40:19.685Z,93.10
2018-01-12T10:42:47.114Z,92.80
2018-01-12T10:45:14.545Z,92.70
2018-01-12T10:47:57.652Z,92.70
2018-01-12T10:50:25.093Z,92.90
2018-01-12T10:52:53.308Z,93.40
2018-01-12T10:55:20.744Z,93.30
2018-01-12T10:57:48.166Z,93.40
2018-01-12T11:00:32.440Z,93.30
2018-01-12T11:02:59.880Z,93.20
2018-01-12T11:05:27.318Z,93.20
2018-01-12T11:07:54.744Z,93.30
2018-01-12T11:10:22.183Z,93.30
2018-01-12T11:12:49.604Z,93.30
2018-01-12T11:15:17.044Z,92.90
2018-01-12T11:17:44.468Z,93.10
2018-01-12T11:20:12.030Z,93.10
2018-01-12T11:22:39.446Z,92.90
2018-01-12T11:25:07.666Z,93.00
2018-01-12T11:27:35.148Z,92.90
2018-01-12T11:30:02.589Z,93.00
2018-01-12T11:32:30.021Z,92.90
2018-01-12T11:34:57.466Z,92.70
2018-01-12T11:37:24.900Z,92.90
2018-01-12T11:39:52.346Z,92.80
2018-01-12T11:42:19.782Z,92.80
2018-01-12T11:44:47.284Z,92.50
2018-01-12T11:47:15.486Z,92.40
2018-01-12T11:49:42.943Z,92.40
2018-01-12T11:52:10.369Z,92.30
2018-01-12T11:54:38.585Z,92.20
2018-01-12T11:57:06.005Z,92.20
2018-01-12T11:59:34.221Z,92.10
2018-01-12T12:02:01.645Z,92.00
2018-01-12T12:04:29.090Z,91.90
2018-01-12T12:06:56.517Z,91.60
2018-01-12T12:09:24.724Z,91.70
2018-01-12T12:11:52.157Z,91.70
2018-01-12T12:14:19.594Z,91.60
2018-01-12T12:16:47.028Z,91.60
2018-01-12T12:19:14.461Z,91.60
2018-01-12T12:21:42.662Z,91.20
2018-01-12T12:24:10.097Z,91.20
2018-01-12T12:26:38.305Z,91.70
2018-01-12T12:29:05.736Z,91.70
2018-01-12T12:31:33.177Z,91.50
2018-01-12T12:34:01.393Z,91.80
2018-01-12T12:36:28.910Z,91.80
2018-01-12T12:38:57.122Z,91.60
2018-01-12T12:41:24.554Z,91.20
2018-01-12T12:43:52.765Z,91.80
2018-01-12T12:46:20.220Z,91.80
2018-01-12T12:48:47.644Z,91.70
2018-01-12T12:51:15.853Z,92.00
2018-01-12T12:53:43.298Z,92.00
2018-01-12T12:56:10.750Z,91.80
2018-01-12T12:58:38.188Z,92.00
2018-01-12T13:01:06.542Z,92.00
2018-01-12T13:03:34.031Z,92.00
2018-01-12T13:06:02.254Z,92.10
2018-01-12T13:08:29.693Z,92.10
2018-01-12T13:10:57.134Z,92.00
2018-01-12T13:13:24.570Z,92.20
2018-01-12T13:15:52.796Z,92.40
2018-01-12T13:18:20.267Z,92.40
2018-01-12T13:20:47.697Z,92.40
2018-01-12T13:23:15.129Z,92.40
2018-01-12T13:25:42.580Z,92.30
2018-01-12T13:28:10.811Z,92.30
2018-01-12T13:30:38.259Z,92.30
2018-01-12T13:33:05.706Z,92.40
2018-01-12T13:35:33.140Z,92.30
2018-01-12T13:38:00.565Z,92.40
2018-01-12T13:40:28.022Z,92.10
2018-01-12T13:42:55.448Z,92.40
2018-01-12T13:45:22.888Z,92.20
2018-01-12T13:47:50.322Z,92.20
2018-01-12T13:50:17.759Z,92.20
2018-01-12T13:52:45.978Z,92.30
2018-01-12T13:55:13.435Z,92.30
2018-01-12T13:57:40.873Z,92.10
2018-01-12T14:00:09.078Z,92.30
2018-01-12T14:02:36.508Z,92.30
2018-01-12T14:05:03.943Z,92.40
2018-01-12T14:07:31.395Z,92.30
2018-01-12T14:09:58.818Z,92.20
2018-01-12T14:12:26.256Z,92.30
2018-01-12T14:14:53.695Z,92.10
2018-01-12T14:17:21.124Z,92.10
2018-01-12T14:19:49.321Z,92.00
2018-01-12T14:22:16.798Z,92.00
2018-01-12T14:24:44.228Z,91.90
2018-01-12T14:27:12.265Z,92.20
2018-01-12T14:29:39.738Z,92.40
2018-01-12T14:32:07.187Z,92.30
2018-01-12T14:34:34.691Z,92.30
2018-01-12T14:37:02.175Z,92.50
2018-01-12T14:39:29.668Z,92.30
2018-01-12T14:41:57.144Z,92.00
2018-01-12T14:44:25.378Z,92.40
2018-01-12T14:46:52.841Z,92.40
2018-01-12T14:49:20.282Z,92.40
2018-01-12T14:51:47.779Z,92.20
2018-01-12T14:54:15.410Z,92.20
2018-01-12T14:56:42.873Z,92.20
2018-01-12T14:59:10.315Z,92.20
2018-01-12T15:01:37.881Z,92.20
2018-01-12T15:04:05.350Z,92.20
2018-01-12T15:06:32.835Z,92.20
2018-01-12T15:09:00.279Z,92.20
2018-01-12T15:11:29.572Z,92.10
2018-01-12T15:13:57.190Z,92.20
2018-01-12T15:16:25.388Z,92.20
2018-01-12T15:18:52.834Z,92.20
2018-01-12T15:21:20.294Z,92.30
2018-01-12T15:23:47.741Z,92.20
2018-01-12T15:26:15.180Z,92.10
2018-01-12T15:28:45.582Z,92.60
2018-01-12T15:31:13.032Z,92.60
2018-01-12T15:33:40.473Z,92.40
2018-01-12T15:36:07.926Z,92.70
2018-01-12T15:38:35.440Z,92.60
2018-01-12T15:41:03.650Z,92.50
2018-01-12T15:43:31.095Z,92.50
2018-01-12T15:45:58.540Z,92.70
2018-01-12T15:48:25.972Z,92.90
2018-01-12T15:50:54.177Z,92.60
2018-01-12T15:53:21.625Z,92.60
2018-01-12T15:55:49.839Z,92.70
2018-01-12T15:58:17.278Z,92.70
2018-01-12T16:00:44.709Z,92.70
2018-01-12T16:03:12.437Z,92.80
2018-01-12T16:05:39.863Z,93.00
2018-01-12T16:08:07.297Z,92.90
2018-01-12T16:10:34.721Z,92.80
2018-01-12T16:13:02.156Z,92.90
2018-01-12T16:15:30.371Z,93.20
2018-01-12T16:17:58.570Z,93.00
2018-01-12T16:20:25.988Z,93.30
2018-01-12T16:22:54.204Z,92.90
2018-01-12T16:25:21.657Z,92.90
2018-01-12T16:27:49.081Z,93.00
2018-01-12T16:30:17.282Z,93.10
2018-01-12T16:32:44.723Z,93.10
2018-01-12T16:35:12.437Z,93.20
2018-01-12T16:37:40.640Z,93.20
2018-01-12T16:40:08.088Z,93.20
2018-01-12T16:42:35.524Z,93.20
2018-01-12T16:45:02.961Z,93.20
2018-01-12T16:47:30.399Z,93.40
2018-01-12T16:49:58.608Z,93.30
2018-01-12T16:52:26.045Z,93.30
2018-01-12T16:54:53.494Z,93.40
2018-01-12T16:57:20.924Z,93.20
2018-01-12T16:59:49.135Z,93.30
2018-01-12T17:02:16.556Z,93.20
2018-01-12T17:04:44.752Z,93.40
2018-01-12T17:07:12.468Z,93.30
2018-01-12T17:09:40.664Z,93.20
2018-01-12T17:12:08.100Z,93.30
2018-01-12T17:14:35.539Z,93.50
2018-01-12T17:17:02.992Z,93.40
2018-01-12T17:19:30.433Z,93.80
2018-01-12T17:21:58.618Z,93.30
2018-01-12T17:24:26.071Z,93.30
2018-01-12T17:26:53.522Z,93.30
2018-01-12T17:29:20.963Z,93.20
2018-01-12T17:31:49.156Z,93.00
2018-01-12T17:34:16.661Z,93.00
2018-01-12T17:36:44.099Z,93.00
2018-01-12T17:39:13.434Z,93.00
2018-01-12T17:41:51.436Z,93.00
2018-01-12T17:44:19.434Z,93.10
2018-01-12T17:46:47.696Z,93.20
2018-01-12T17:49:16.022Z,93.30
2018-01-12T17:51:43.457Z,93.20
2018-01-12T17:55:23.043Z,93.20
2018-01-12T17:57:50.478Z,93.00
2018-01-12T18:00:17.909Z,93.50
2018-01-12T18:02:46.111Z,93.50
2018-01-12T18:05:13.532Z,93.50
2018-01-12T18:07:41.753Z,93.40
2018-01-12T18:10:09.190Z,93.40
2018-01-12T18:12:36.694Z,93.30
2018-01-12T18:15:04.157Z,93.20
2018-01-12T18:17:31.604Z,93.30
2018-01-12T18:19:59.060Z,93.50
2018-01-12T18:22:26.489Z,93.60
2018-01-12T18:24:53.948Z,93.50
2018-01-12T18:27:21.375Z,93.30
2018-01-12T18:29:49.580Z,93.40
2018-01-12T18:32:16.999Z,93.40
2018-01-12T18:34:45.213Z,93.30
2018-01-12T18:37:12.644Z,93.30
2018-01-12T18:39:40.842Z,93.40
2018-01-12T18:42:08.296Z,93.40
2018-01-12T18:44:35.729Z,93.50
2018-01-12T18:47:03.956Z,93.20
2018-01-12T18:49:31.400Z,93.20
2018-01-12T18:51:58.836Z,93.20
2018-01-12T18:54:26.273Z,93.00
2018-01-12T18:56:54.477Z,93.20
2018-01-12T18:59:23.268Z,93.20
2018-01-12T19:01:50.692Z,93.20
2018-01-12T19:04:18.888Z,93.20
2018-01-12T19:06:46.321Z,93.20
2018-01-12T19:09:14.516Z,93.30
2018-01-12T19:11:41.947Z,93.20
2018-01-12T19:14:10.149Z,93.40
2018-01-12T19:16:37.592Z,93.40
2018-01-12T19:19:05.801Z,93.30
2018-01-12T19:21:33.230Z,93.70
2018-01-12T19:24:00.693Z,93.30
2018-01-12T19:26:28.129Z,93.50
2018-01-12T19:28:56.333Z,93.70
2018-01-12T19:31:23.764Z,93.40
2018-01-12T19:33:51.979Z,93.40
2018-01-12T19:36:19.406Z,93.40
2018-01-12T19:38:47.618Z,93.60
2018-01-12T19:41:15.067Z,93.60
2018-01-12T19:43:42.508Z,93.40
2018-01-12T19:46:09.931Z,93.30
2018-01-12T19:48:37.420Z,93.30
2018-01-12T19:51:04.851Z,93.80
2018-01-12T19:53:32.476Z,93.40
2018-01-12T19:55:59.923Z,93.40
2018-01-12T19:58:27.354Z,93.50
2018-01-12T20:00:54.809Z,93.50
2018-01-12T20:03:22.232Z,93.40
2018-01-12T20:05:49.689Z,93.20
2018-01-12T20:08:17.141Z,93.20
2018-01-12T20:10:44.581Z,93.20
2018-01-12T20:13:13.540Z,93.40
2018-01-12T20:15:40.987Z,93.30
2018-01-12T20:18:09.182Z,93.50
2018-01-12T20:20:36.624Z,93.50
2018-01-12T20:23:04.120Z,93.50
2018-01-12T20:25:33.314Z,93.70
2018-01-12T20:28:00.741Z,93.60
2018-01-12T20:30:28.173Z,93.50
2018-01-12T20:32:56.376Z,93.50
2018-01-12T20:35:23.823Z,93.50
2018-01-12T20:37:52.044Z,93.30
2018-01-12T20:40:19.477Z,93.20
2018-01-12T20:42:46.934Z,93.30
2018-01-12T20:45:14.370Z,93.40
2018-01-12T20:47:41.799Z,93.40
2018-01-12T20:50:09.237Z,93.20
2018-01-12T20:52:36.735Z,93.30
2018-01-12T20:55:04.946Z,93.30
2018-01-12T20:57:32.372Z,93.20
2018-01-12T20:59:59.816Z,93.40
2018-01-12T21:02:28.014Z,93.30
2018-01-12T21:04:55.442Z,93.20
2018-01-12T21:07:23.666Z,93.40
2018-01-12T21:09:51.134Z,93.40
2018-01-12T21:12:18.567Z,93.40
2018-01-12T21:14:46.024Z,93.40
2018-01-12T21:17:13.451Z,93.40
2018-01-12T21:19:41.667Z,93.40
2018-01-12T21:22:09.092Z,93.40
2018-01-12T21:24:37.287Z,93.40
2018-01-12T21:27:04.742Z,93.40
2018-01-12T21:29:32.180Z,93.20
2018-01-12T21:32:00.386Z,93.30
2018-01-12T21:34:28.080Z,93.30
2018-01-12T21:36:56.301Z,93.10
2018-01-12T21:39:24.475Z,93.30
2018-01-12T21:41:52.681Z,93.30
2018-01-12T21:44:20.134Z,93.20
2018-01-12T21:46:47.593Z,93.20
2018-01-12T21:49:15.029Z,93.10
2018-01-12T21:51:42.467Z,93.20
2018-01-12T21:54:10.686Z,93.50
2018-01-12T21:56:38.144Z,93.50
2018-01-12T21:59:05.580Z,93.60
2018-01-12T22:01:33.024Z,93.30
2018-01-12T22:04:01.247Z,93.60
2018-01-12T22:06:28.685Z,93.50
2018-01-12T22:08:56.115Z,93.40
2018-01-12T22:11:24.319Z,93.50
2018-01-12T22:13:51.759Z,93.50
2018-01-12T22:16:19.196Z,93.40
2018-01-12T22:18:47.396Z,93.40
2018-01-12T22:21:14.837Z,93.40
2018-01-12T22:23:43.064Z,93.80
2018-01-12T22:26:10.603Z,93.80
2018-01-12T22:28:38.024Z,93.60
2018-01-12T22:31:06.224Z,93.70
2018-01-12T22:33:33.654Z,93.70
2018-01-12T22:36:01.852Z,93.70
2018-01-12T22:38:29.284Z,93.60
2018-01-12T22:40:56.710Z,93.50
2018-01-12T22:43:24.159Z,93.90
2018-01-12T22:45:51.590Z,93.40
2018-01-12T22:48:19.033Z,93.40
2018-01-12T22:50:46.473Z,93.40
2018-01-12T22:53:14.678Z,93.30
2018-01-12T22:55:42.113Z,93.30
2018-01-12T22:58:10.324Z,93.20
2018-01-12T23:00:37.781Z,93.20
2018-01-12T23:03:05.205Z,93.30
2018-01-12T23:05:33.409Z,93.30
2018-01-12T23:08:00.854Z,93.20
2018-01-12T23:10:28.323Z,93.30
2018-01-12T23:12:55.744Z,93.40
2018-01-12T23:15:23.947Z,93.40
2018-01-12T23:17:51.392Z,93.40
2018-01-12T23:20:18.833Z,93.30
2018-01-12T23:22:47.048Z,93.50
2018-01-12T23:25:14.489Z,93.50
2018-01-12T23:27:41.946Z,93.60
2018-01-12T23:30:09.403Z,94.00
2018-01-12T23:32:36.893Z,94.20
2018-01-12T23:35:04.373Z,93.90
2018-01-12T23:37:31.809Z,93.90
2018-01-12T23:39:59.276Z,93.80
2018-01-12T23:42:26.715Z,93.70
2018-01-12T23:44:54.168Z,93.70
2018-01-12T23:47:21.640Z,93.70
2018-01-12T23:49:49.108Z,93.80
2018-01-12T23:52:17.318Z,93.80
2018-01-12T23:54:45.512Z,93.80
2018-01-12T23:57:12.949Z,93.80
2018-01-12T23:59:41.143Z,93.80
